Redding, Iowa
Current Conditions -  °F | °C
As of 8:53 PM on Tuesday 25 Nov 2014 (Local Time) from KLWD Reporting Station
Clear Clear  
Wind Chill: 21°   Ceiling: Unl
Heat Index: 30°   Visibility: 10mi
Dew Point: 16°   Wind: 10mph
Humidity: 56%   Direction: 150°SSE
Pressure: 30.02"   Gusts: NA
Location:  40.6°N, 94.39°W
Report Text: KLWD 260253Z AUTO 15009KT 10SM CLR M01/M09 A3002 RMK AO2 SLP181 T10111089 58009
Loading
Personal Weather Stations






























Interactive Weather Map New forecast layout! Learn more

10-Day Weather Forecast

Advertisements
Track Severe Weather on mobile